createdAt,value
2023-04-18T00:01:40.230Z,77.40
2023-04-18T00:04:09.935Z,77.20
2023-04-18T00:06:38.308Z,77.30
2023-04-18T00:09:06.704Z,77.30
2023-04-18T00:11:36.190Z,77.20
2023-04-18T00:14:04.414Z,77.30
2023-04-18T00:16:33.108Z,77.40
2023-04-18T00:19:04.546Z,77.50
2023-04-18T00:21:33.055Z,77.40
2023-04-18T00:24:03.839Z,77.40
2023-04-18T00:26:32.170Z,77.10
2023-04-18T00:29:05.284Z,77.40
2023-04-18T00:31:33.504Z,77.40
2023-04-18T00:34:01.714Z,77.40
2023-04-18T00:36:29.845Z,77.40
2023-04-18T00:38:57.979Z,77.40
2023-04-18T00:41:28.658Z,78.10
2023-04-18T00:43:59.236Z,77.40
2023-04-18T00:46:31.130Z,77.40
2023-04-18T00:48:59.564Z,77.40
2023-04-18T00:51:29.913Z,77.30
2023-04-18T00:54:00.545Z,77.50
2023-04-18T00:56:31.077Z,77.50
2023-04-18T00:59:00.332Z,77.30
2023-04-18T01:01:33.651Z,77.20
2023-04-18T01:04:02.105Z,77.20
2023-04-18T01:06:32.519Z,77.20
2023-04-18T01:09:02.182Z,77.30
2023-04-18T01:11:32.391Z,77.40
2023-04-18T01:14:01.795Z,77.40
2023-04-18T01:16:33.244Z,77.40
2023-04-18T01:19:02.009Z,77.40
2023-04-18T01:21:31.399Z,77.40
2023-04-18T01:24:07.642Z,77.40
2023-04-18T01:26:36.045Z,77.40
2023-04-18T01:29:06.844Z,77.50
2023-04-18T01:31:37.220Z,77.40
2023-04-18T01:34:06.212Z,77.40
2023-04-18T01:36:39.440Z,77.40
2023-04-18T01:39:09.348Z,78.20
2023-04-18T01:41:39.915Z,77.60
2023-04-18T01:44:08.048Z,77.50
2023-04-18T01:46:36.504Z,77.50
2023-04-18T01:49:07.580Z,77.60
2023-04-18T01:51:35.680Z,77.60
2023-04-18T01:54:03.785Z,77.40
2023-04-18T01:56:33.443Z,77.50
2023-04-18T01:59:02.833Z,77.50
2023-04-18T02:01:31.029Z,77.60
2023-04-18T02:04:00.397Z,77.50
2023-04-18T02:06:28.602Z,77.50
2023-04-18T02:08:56.730Z,77.50
2023-04-18T02:11:27.193Z,77.50
2023-04-18T02:13:59.641Z,77.30
2023-04-18T02:16:30.497Z,77.20
2023-04-18T02:18:58.693Z,77.20
2023-04-18T02:21:26.982Z,77.10
2023-04-18T02:23:55.117Z,76.70
2023-04-18T02:26:23.436Z,77.10
2023-04-18T02:28:51.807Z,77.00
2023-04-18T02:31:21.346Z,77.10
2023-04-18T02:33:49.530Z,76.90
2023-04-18T02:36:17.642Z,77.10
2023-04-18T02:38:45.997Z,76.60
2023-04-18T02:41:17.446Z,76.90
2023-04-18T02:43:45.709Z,76.90
2023-04-18T02:46:16.546Z,76.90
2023-04-18T02:48:49.258Z,76.90
2023-04-18T02:51:19.993Z,76.90
2023-04-18T02:53:48.275Z,76.70
2023-04-18T02:56:18.848Z,76.70
2023-04-18T02:59:25.414Z,76.50
2023-04-18T03:02:13.867Z,76.60
2023-04-18T03:04:51.033Z,77.50
2023-04-18T03:07:21.810Z,76.70
2023-04-18T03:09:51.728Z,76.50
2023-04-18T03:12:27.004Z,76.50
2023-04-18T03:14:55.253Z,76.40
2023-04-18T03:17:25.790Z,76.40
2023-04-18T03:19:55.987Z,76.40
2023-04-18T03:22:25.334Z,76.50
2023-04-18T03:25:01.043Z,76.60
2023-04-18T03:27:51.845Z,76.60
2023-04-18T03:30:22.238Z,76.30
2023-04-18T03:32:56.383Z,76.20
2023-04-18T03:35:26.223Z,76.40
2023-04-18T03:37:57.540Z,76.50
2023-04-18T03:40:29.652Z,76.50
2023-04-18T03:43:03.130Z,77.10
2023-04-18T03:45:31.673Z,76.50
2023-04-18T03:47:59.954Z,76.30
2023-04-18T03:50:29.731Z,76.40
2023-04-18T03:52:59.098Z,76.50
2023-04-18T03:55:33.891Z,76.40
2023-04-18T03:58:03.438Z,76.40
2023-04-18T04:00:32.646Z,76.40
2023-04-18T04:03:07.532Z,76.20
2023-04-18T04:05:39.717Z,76.10
2023-04-18T04:08:08.002Z,76.10
2023-04-18T04:10:38.521Z,76.30
2023-04-18T04:13:06.684Z,76.40
2023-04-18T04:15:38.543Z,77.10
2023-04-18T04:18:10.723Z,76.10
2023-04-18T04:20:44.982Z,76.20
2023-04-18T04:23:27.900Z,76.10
2023-04-18T04:25:58.664Z,76.10
2023-04-18T04:28:46.479Z,76.30
2023-04-18T04:31:22.218Z,76.30
2023-04-18T04:33:51.838Z,76.30
2023-04-18T04:36:43.164Z,76.30
2023-04-18T04:39:13.916Z,76.60
2023-04-18T04:42:04.398Z,76.30
2023-04-18T04:44:41.683Z,77.10
2023-04-18T04:47:12.893Z,76.30
2023-04-18T04:49:41.308Z,76.30
2023-04-18T04:52:10.852Z,76.40
2023-04-18T04:54:38.925Z,76.50
2023-04-18T04:57:09.423Z,76.50
2023-04-18T04:59:37.787Z,76.40
2023-04-18T05:02:07.161Z,76.40
2023-04-18T05:04:35.573Z,76.50
2023-04-18T05:07:03.833Z,76.50
2023-04-18T05:09:33.391Z,76.40
2023-04-18T05:12:01.893Z,76.50
2023-04-18T05:14:30.957Z,76.50
2023-04-18T05:16:59.238Z,76.80
2023-04-18T05:19:27.674Z,76.80
2023-04-18T05:21:56.458Z,76.80
2023-04-18T05:24:24.575Z,76.80
2023-04-18T05:26:54.245Z,76.70
2023-04-18T05:29:24.791Z,76.60
2023-04-18T05:31:55.346Z,76.50
2023-04-18T05:34:25.960Z,76.50
2023-04-18T05:36:54.276Z,76.50
2023-04-18T05:39:22.362Z,76.40
2023-04-18T05:41:54.015Z,76.20
2023-04-18T05:44:24.099Z,76.20
2023-04-18T05:46:52.364Z,77.10
2023-04-18T05:49:20.675Z,76.30
2023-04-18T05:51:49.809Z,76.30
2023-04-18T05:54:18.006Z,76.20
2023-04-18T05:56:46.456Z,76.00
2023-04-18T05:59:28.912Z,76.20
2023-04-18T06:02:23.734Z,76.20
2023-04-18T06:05:41.175Z,76.20
2023-04-18T06:08:15.031Z,76.60
2023-04-18T06:30:35.242Z,76.20
2023-04-18T06:34:29.977Z,76.00
2023-04-18T06:40:21.402Z,76.50
2023-04-18T06:42:49.581Z,76.10
2023-04-18T06:45:22.129Z,76.50
2023-04-18T06:48:08.318Z,76.20
2023-04-18T06:50:50.939Z,76.30
2023-04-18T06:53:25.292Z,76.40
2023-04-18T06:55:58.783Z,76.10
2023-04-18T06:58:34.753Z,76.80
2023-04-18T07:01:13.165Z,76.70
2023-04-18T07:03:53.535Z,76.50
2023-04-18T07:06:26.563Z,76.60
2023-04-18T07:09:05.941Z,76.50
2023-04-18T07:11:46.443Z,76.50
2023-04-18T07:14:34.479Z,76.00
2023-04-18T07:17:09.449Z,75.90
2023-04-18T07:19:54.405Z,76.30
2023-04-18T07:22:27.761Z,76.20
2023-04-18T07:25:07.914Z,76.20
2023-04-18T07:27:46.074Z,76.40
2023-04-18T07:30:25.097Z,76.20
2023-04-18T07:33:06.858Z,75.90
2023-04-18T07:35:48.810Z,76.00
2023-04-18T07:38:29.640Z,76.00
2023-04-18T07:41:09.452Z,75.60
2023-04-18T07:43:43.294Z,76.00
2023-04-18T07:46:26.757Z,76.40
2023-04-18T07:49:07.045Z,75.40
2023-04-18T07:51:45.298Z,76.30
2023-04-18T07:54:24.079Z,76.20
2023-04-18T07:57:03.675Z,76.40
2023-04-18T07:59:34.910Z,76.30
2023-04-18T08:02:11.735Z,76.00
2023-04-18T08:04:44.828Z,75.60
2023-04-18T08:07:19.492Z,76.00
2023-04-18T08:10:03.069Z,76.20
2023-04-18T08:12:46.131Z,75.90
2023-04-18T08:15:17.206Z,75.90
2023-04-18T08:17:54.647Z,75.70
2023-04-18T08:20:39.042Z,75.60
2023-04-18T08:23:18.444Z,75.30
2023-04-18T08:25:49.818Z,75.10
2023-04-18T08:28:29.932Z,75.30
2023-04-18T08:31:03.018Z,75.50
2023-04-18T08:33:35.989Z,76.00
2023-04-18T08:36:14.579Z,75.40
2023-04-18T08:38:53.484Z,75.00
2023-04-18T08:44:17.585Z,74.90
2023-04-18T08:46:56.079Z,75.20
2023-04-18T08:49:33.290Z,75.30
2023-04-18T08:52:08.259Z,75.00
2023-04-18T08:54:39.355Z,75.40
2023-04-18T08:57:08.756Z,75.20
2023-04-18T08:59:46.709Z,75.00
2023-04-18T09:02:19.492Z,75.00
2023-04-18T09:04:52.747Z,74.70
2023-04-18T09:07:28.752Z,74.80
2023-04-18T09:09:59.155Z,74.70
2023-04-18T09:12:31.981Z,74.60
2023-04-18T09:15:31.750Z,74.60
2023-04-18T09:18:25.097Z,74.90
2023-04-18T09:21:05.149Z,74.10
2023-04-18T09:23:47.028Z,74.30
2023-04-18T09:26:39.753Z,74.20
2023-04-18T09:29:25.026Z,74.10
2023-04-18T09:32:18.525Z,74.30
2023-04-18T09:35:09.067Z,74.30
2023-04-18T09:37:46.459Z,73.80
2023-04-18T09:43:19.968Z,74.00
2023-04-18T09:45:55.585Z,73.50
2023-04-18T09:48:45.433Z,73.80
2023-04-18T09:51:24.260Z,73.80
2023-04-18T09:53:58.937Z,73.80
2023-04-18T09:56:32.113Z,74.10
2023-04-18T09:59:21.061Z,74.00
2023-04-18T10:02:02.949Z,74.20
2023-04-18T10:05:33.939Z,74.20
2023-04-18T10:08:28.458Z,73.70
2023-04-18T10:11:25.863Z,73.80
2023-04-18T10:14:19.320Z,74.00
2023-04-18T10:17:00.065Z,73.90
2023-04-18T10:19:53.817Z,73.90
2023-04-18T10:22:30.878Z,73.80
2023-04-18T10:25:04.819Z,73.80
2023-04-18T10:28:07.291Z,74.20
2023-04-18T10:31:03.032Z,74.00
2023-04-18T10:33:42.861Z,73.80
2023-04-18T10:36:23.125Z,74.20
2023-04-18T10:39:00.838Z,74.10
2023-04-18T10:41:30.742Z,74.00
2023-04-18T10:44:35.697Z,74.20
2023-04-18T10:47:23.749Z,74.10
2023-04-18T10:50:01.625Z,73.90
2023-04-18T10:52:47.517Z,74.40
2023-04-18T10:55:34.177Z,74.80
2023-04-18T10:58:19.167Z,74.80
2023-04-18T11:01:23.055Z,74.80
2023-04-18T11:04:06.961Z,74.60
2023-04-18T11:06:57.882Z,74.60
2023-04-18T11:09:46.091Z,74.60
2023-04-18T11:12:50.212Z,75.30
2023-04-18T11:15:47.738Z,74.60
2023-04-18T11:18:27.780Z,75.00
2023-04-18T11:21:09.855Z,75.00
2023-04-18T11:23:49.875Z,74.70
2023-04-18T11:30:38.031Z,74.70
2023-04-18T12:11:45.574Z,74.80
2023-04-18T12:14:33.713Z,75.30
2023-04-18T12:17:13.170Z,75.70
2023-04-18T12:27:16.462Z,75.30
2023-04-18T12:36:00.209Z,75.70
2023-04-18T12:41:42.898Z,75.60
2023-04-18T12:44:13.595Z,75.60
2023-04-18T12:46:59.771Z,75.60
2023-04-18T12:49:42.662Z,75.90
2023-04-18T13:45:13.247Z,75.60
2023-04-18T13:47:53.450Z,75.60
2023-04-18T15:02:58.361Z,76.00
2023-04-18T15:05:46.024Z,76.40
2023-04-18T15:08:17.796Z,76.00
2023-04-18T15:10:49.312Z,76.30
2023-04-18T15:13:18.287Z,76.10
2023-04-18T15:16:09.405Z,76.80
2023-04-18T15:18:43.857Z,75.90
2023-04-18T15:21:31.304Z,77.10
2023-04-18T16:04:42.380Z,76.90
2023-04-18T16:07:16.554Z,77.10
2023-04-18T16:09:45.209Z,77.00
2023-04-18T16:12:16.548Z,77.30
2023-04-18T16:18:55.843Z,76.90
2023-04-18T16:21:57.600Z,76.80
2023-04-18T16:24:27.837Z,76.90
2023-04-18T16:27:06.997Z,77.20
2023-04-18T16:29:37.355Z,77.30
2023-04-18T16:32:08.842Z,77.10
2023-04-18T16:34:37.976Z,77.00
2023-04-18T16:37:13.960Z,77.10
2023-04-18T16:40:06.264Z,77.20
2023-04-18T16:42:37.954Z,76.80
2023-04-18T16:45:13.865Z,77.00
2023-04-18T16:47:43.755Z,77.10
2023-04-18T16:50:39.626Z,77.10
2023-04-18T16:59:32.346Z,76.90
2023-04-18T17:02:04.258Z,77.10
2023-04-18T17:04:34.357Z,77.10
2023-04-18T17:07:06.102Z,77.00
2023-04-18T17:13:04.088Z,76.60
2023-04-18T17:15:37.402Z,76.90
2023-04-18T17:18:14.164Z,77.40
2023-04-18T17:24:04.483Z,77.10
2023-04-18T17:30:16.570Z,77.40
2023-04-18T17:42:51.514Z,77.30
2023-04-18T17:49:49.205Z,77.50
2023-04-18T17:52:31.187Z,78.10
2023-04-18T17:55:23.297Z,77.90
2023-04-18T17:58:00.119Z,77.80
2023-04-18T18:00:31.736Z,78.00
2023-04-18T18:03:12.507Z,77.80
2023-04-18T18:09:56.265Z,78.10
2023-04-18T18:12:44.002Z,78.40
2023-04-18T18:15:55.830Z,78.40
2023-04-18T18:18:58.819Z,78.60
2023-04-18T18:21:34.042Z,78.30
2023-04-18T18:24:07.666Z,78.60
2023-04-18T18:26:55.452Z,78.60
2023-04-18T18:29:44.092Z,78.20
2023-04-18T18:32:23.159Z,78.80
2023-04-18T18:35:08.271Z,78.80
2023-04-18T18:37:36.890Z,78.80
2023-04-18T18:40:07.422Z,78.60
2023-04-18T18:42:46.838Z,78.50
2023-04-18T18:45:15.842Z,79.00
2023-04-18T18:47:47.384Z,78.70
2023-04-18T18:50:25.982Z,78.70
2023-04-18T18:53:02.961Z,78.70
2023-04-18T18:55:47.701Z,78.70
2023-04-18T18:58:47.953Z,79.00
2023-04-18T19:01:41.146Z,78.80
2023-04-18T19:04:14.398Z,79.00
2023-04-18T19:06:56.625Z,79.00
2023-04-18T19:09:31.753Z,78.70
2023-04-18T19:12:01.358Z,78.80
2023-04-18T19:14:31.560Z,78.90
2023-04-18T19:17:12.161Z,78.80
2023-04-18T19:19:43.678Z,79.00
2023-04-18T19:22:13.497Z,79.00
2023-04-18T19:24:44.881Z,79.00
2023-04-18T19:27:13.374Z,79.20
2023-04-18T19:30:20.072Z,79.00
2023-04-18T19:32:52.888Z,79.20
2023-04-18T19:35:24.091Z,79.30
2023-04-18T19:37:56.112Z,79.40
2023-04-18T19:40:28.057Z,79.00
2023-04-18T19:43:05.378Z,79.10
2023-04-18T19:46:05.109Z,78.80
2023-04-18T19:48:44.821Z,79.10
2023-04-18T19:51:24.440Z,79.50
2023-04-18T19:54:02.016Z,79.50
2023-04-18T19:56:34.195Z,79.20
2023-04-18T19:59:34.192Z,79.60
2023-04-18T20:02:06.237Z,79.60
2023-04-18T20:04:36.523Z,79.50
2023-04-18T20:07:05.038Z,79.50
2023-04-18T20:09:33.278Z,79.50
2023-04-18T20:12:02.114Z,79.50
2023-04-18T20:14:30.800Z,79.60
2023-04-18T20:17:00.135Z,79.90
2023-04-18T20:19:30.611Z,79.90
2023-04-18T20:22:02.289Z,80.10
2023-04-18T20:24:32.006Z,80.00
2023-04-18T20:27:01.929Z,80.20
2023-04-18T20:29:43.166Z,80.10
2023-04-18T20:32:13.192Z,80.30
2023-04-18T20:34:43.835Z,80.20
2023-04-18T20:37:16.196Z,80.10
2023-04-18T20:39:44.755Z,80.40
2023-04-18T20:42:15.905Z,80.20
2023-04-18T20:44:47.054Z,80.40
2023-04-18T20:47:16.100Z,80.20
2023-04-18T20:49:54.412Z,80.30
2023-04-18T20:52:23.416Z,80.50
2023-04-18T20:54:51.621Z,80.30
2023-04-18T20:57:20.169Z,80.30
2023-04-18T20:59:48.734Z,80.20
2023-04-18T21:02:29.724Z,81.20
2023-04-18T21:05:02.442Z,80.30
2023-04-18T21:07:33.874Z,80.70
2023-04-18T21:10:02.304Z,80.90
2023-04-18T21:12:33.185Z,80.70
2023-04-18T21:15:02.292Z,80.60
2023-04-18T21:17:33.491Z,80.70
2023-04-18T21:20:03.513Z,80.50
2023-04-18T21:22:34.176Z,80.70
2023-04-18T21:25:07.100Z,80.70
2023-04-18T21:27:39.380Z,80.90
2023-04-18T21:30:10.377Z,80.70
2023-04-18T21:32:41.254Z,80.50
2023-04-18T21:35:19.358Z,80.90
2023-04-18T21:37:52.864Z,80.90
2023-04-18T21:40:30.714Z,80.90
2023-04-18T21:43:13.392Z,81.00
2023-04-18T21:45:42.387Z,81.20
2023-04-18T21:48:13.587Z,80.90
2023-04-18T21:50:55.407Z,81.00
2023-04-18T21:53:31.412Z,81.70
2023-04-18T21:55:59.835Z,80.90
2023-04-18T21:58:28.393Z,81.10
2023-04-18T22:01:13.905Z,81.10
2023-04-18T22:03:47.976Z,81.20
2023-04-18T22:06:18.215Z,81.20
2023-04-18T22:08:46.769Z,81.20
2023-04-18T22:11:18.823Z,81.10
2023-04-18T22:13:47.860Z,81.10
2023-04-18T22:16:23.151Z,81.30
2023-04-18T22:18:51.838Z,81.30
2023-04-18T22:21:21.710Z,81.30
2023-04-18T22:23:50.084Z,81.30
2023-04-18T22:26:18.669Z,81.40
2023-04-18T22:28:48.577Z,81.50
2023-04-18T22:31:25.499Z,81.50
2023-04-18T22:33:54.300Z,81.20
2023-04-18T22:36:27.862Z,81.30
2023-04-18T22:38:59.050Z,81.50
2023-04-18T22:41:28.181Z,81.40
2023-04-18T22:44:00.007Z,81.60
2023-04-18T22:46:28.713Z,81.70
2023-04-18T22:49:03.416Z,81.30
2023-04-18T22:51:34.278Z,81.40
2023-04-18T22:54:03.137Z,81.60
2023-04-18T22:56:31.697Z,81.60
2023-04-18T22:59:03.075Z,81.50
2023-04-18T23:01:40.756Z,81.80
2023-04-18T23:04:20.427Z,81.60
2023-04-18T23:06:53.703Z,81.90
2023-04-18T23:09:22.177Z,81.70
2023-04-18T23:11:54.812Z,81.40
2023-04-18T23:14:23.617Z,81.90
2023-04-18T23:16:52.865Z,81.40
2023-04-18T23:19:27.879Z,81.70
2023-04-18T23:22:03.199Z,81.70
2023-04-18T23:24:32.636Z,81.80
2023-04-18T23:27:04.209Z,81.70
2023-04-18T23:29:39.195Z,81.70
2023-04-18T23:32:08.298Z,81.60
2023-04-18T23:34:37.089Z,81.50
2023-04-18T23:37:07.308Z,81.60
2023-04-18T23:39:35.909Z,81.60
2023-04-18T23:42:04.497Z,81.30
2023-04-18T23:44:44.517Z,81.30
2023-04-18T23:47:51.890Z,81.00
2023-04-18T23:50:20.793Z,81.00
2023-04-18T23:52:51.142Z,81.20
2023-04-18T23:55:20.994Z,81.10
2023-04-18T23:57:54.720Z,81.30
